Time;durP1;ratioP1;P1;durP2;ratioP2;P2;SDS_P1;SDS_P2;PMS_P1;PMS_P2;Temp;Humidity;BMP_temperature;BMP_pressure;BME280_temperature;BME280_humidity;BME280_pressure;Samples;Min_cycle;Max_cycle;Signal;HPM_P1;HPM_P2
2022/10/03 00:02:17;;;;;;;19.08;4.82;;;;;;;-145.01;100.00;64805.59;4957604;28;20085;-57
2022/10/03 00:05:00;;;;;;;22.35;4.88;;;;;;;-145.01;100.00;64805.59;4958646;28;20031;-57
2022/10/03 00:07:44;;;;;;;23.75;5.15;;;;;;;-145.01;100.00;64805.59;4956020;28;20058;-57
2022/10/03 00:10:12;;;;;;;18.65;5.20;;;;;;;-145.01;100.00;64805.59;4962003;28;20035;-57
2022/10/03 00:12:59;;;;;;;21.95;5.30;;;;;;;-145.01;100.00;64805.59;4960959;28;20081;-57
2022/10/03 00:15:51;;;;;;;21.20;5.65;;;;;;;-145.01;100.00;64805.59;4959875;28;20029;-57
2022/10/03 00:18:20;;;;;;;19.08;5.65;;;;;;;-145.01;100.00;64805.59;4958574;28;20112;-57
2022/10/03 00:21:03;;;;;;;25.77;5.70;;;;;;;-145.01;100.00;64805.59;4963513;28;20022;-57
2022/10/03 00:23:40;;;;;;;17.38;5.28;;;;;;;-145.01;100.00;64805.59;4955431;28;20046;-56
2022/10/03 00:26:29;;;;;;;23.35;6.25;;;;;;;-145.01;100.00;64805.59;4961575;28;20026;-56
2022/10/03 00:29:13;;;;;;;18.98;5.63;;;;;;;-145.01;100.00;64805.59;4944633;28;20030;-56
2022/10/03 00:32:06;;;;;;;23.20;5.47;;;;;;;-145.01;100.00;64805.59;4963801;28;20035;-56
2022/10/03 00:34:56;;;;;;;22.77;5.80;;;;;;;-145.01;100.00;64805.59;4964110;28;20634;-56
2022/10/03 00:37:21;;;;;;;;;;;;;;;-145.01;100.00;64805.59;4957767;28;20105;-55
2022/10/03 00:40:32;;;;;;;24.08;6.10;;;;;;;-145.01;100.00;64805.59;4962968;28;20335;-56
2022/10/03 00:43:34;;;;;;;29.40;6.15;;;;;;;-145.01;100.00;64805.59;4950902;28;20047;-58
2022/10/03 00:46:18;;;;;;;17.63;5.20;;;;;;;-145.01;100.00;64805.59;4958412;28;20501;-58
2022/10/03 00:48:46;;;;;;;17.60;5.30;;;;;;;-145.01;100.00;64805.59;4963308;28;20035;-56
2022/10/03 00:51:39;;;;;;;26.23;5.45;;;;;;;-145.01;100.00;64805.59;4963256;28;20031;-56
2022/10/03 00:54:25;;;;;;;24.50;6.18;;;;;;;-145.01;100.00;64805.59;4960170;28;20027;-56
2022/10/03 00:57:03;;;;;;;21.30;6.50;;;;;;;-145.01;100.00;64805.59;4959514;28;20723;-57
2022/10/03 00:59:31;;;;;;;29.25;6.82;;;;;;;-145.01;100.00;64805.59;4960289;28;20046;-57
2022/10/03 01:01:56;;;;;;;22.42;5.85;;;;;;;-145.01;100.00;64805.59;4965299;28;20042;-58
2022/10/03 01:04:40;;;;;;;27.10;7.57;;;;;;;-145.01;100.00;64805.59;4966564;28;20040;-57
2022/10/03 01:07:20;;;;;;;18.60;6.43;;;;;;;-145.01;100.00;64805.59;4954107;28;20046;-57
2022/10/03 01:09:48;;;;;;;28.13;6.30;;;;;;;-145.01;100.00;64805.59;4955541;28;20035;-58
2022/10/03 01:12:32;;;;;;;26.05;6.82;;;;;;;-145.01;100.00;64805.59;4962921;28;20041;-58
2022/10/03 01:15:16;;;;;;;24.38;6.30;;;;;;;-145.01;100.00;64805.59;4963049;28;20022;-58
2022/10/03 01:17:46;;;;;;;28.73;6.88;;;;;;;-145.01;100.00;64805.59;4959851;28;20035;-58
2022/10/03 01:20:21;;;;;;;22.58;6.55;;;;;;;-145.01;100.00;64805.59;4962574;28;20645;-57
2022/10/03 01:22:52;;;;;;;26.88;8.20;;;;;;;-145.01;100.00;64805.59;4961809;28;20061;-57
2022/10/03 01:25:26;;;;;;;27.17;8.07;;;;;;;-145.01;100.00;64805.59;4964889;28;20042;-57
2022/10/03 01:31:07;;;;;;;26.30;8.52;;;;;;;-145.01;100.00;64805.59;4965154;28;20069;-57
2022/10/03 01:34:06;;;;;;;26.92;8.20;;;;;;;-145.01;100.00;64805.59;4962761;28;20035;-57
2022/10/03 01:36:34;;;;;;;28.63;8.88;;;;;;;-145.01;100.00;64805.59;4956294;28;20126;-57
2022/10/03 01:39:05;;;;;;;32.35;9.57;;;;;;;-145.01;100.00;64805.59;4958011;28;20414;-57
2022/10/03 01:41:46;;;;;;;34.35;9.00;;;;;;;-145.01;100.00;64805.59;4955852;28;20054;-57
2022/10/03 01:44:13;;;;;;;;;;;;;;;-145.01;100.00;64805.59;4948937;28;20031;-56
2022/10/03 01:46:46;;;;;;;30.90;9.63;;;;;;;-145.01;100.00;64805.59;4943240;28;20021;-57
2022/10/03 01:49:26;;;;;;;21.88;9.38;;;;;;;-145.01;100.00;64805.59;4965816;28;20023;-57
2022/10/03 01:51:58;;;;;;;27.08;8.95;;;;;;;-145.01;100.00;64805.59;4966992;28;20322;-56
2022/10/03 01:54:28;;;;;;;30.50;8.90;;;;;;;-145.01;100.00;64805.59;4954493;28;20058;-56
2022/10/03 01:57:00;;;;;;;26.73;8.73;;;;;;;-145.01;100.00;64805.59;4965324;28;20030;-56
2022/10/03 01:59:57;;;;;;;30.40;8.80;;;;;;;-145.01;100.00;64805.59;4962544;28;20055;-56
2022/10/03 02:02:59;;;;;;;28.27;8.50;;;;;;;-145.01;100.00;64805.59;4957138;28;20042;-56
2022/10/03 02:05:40;;;;;;;27.00;9.70;;;;;;;-145.01;100.00;64805.59;4960740;28;20031;-56
2022/10/03 02:08:22;;;;;;;28.65;10.75;;;;;;;-145.01;100.00;64805.59;4943588;28;20093;-56
2022/10/03 02:11:05;;;;;;;28.88;10.70;;;;;;;-145.01;100.00;64805.59;4962606;28;20067;-56
2022/10/03 02:13:41;;;;;;;24.85;9.45;;;;;;;-145.01;100.00;64805.59;4954945;28;20125;-57
2022/10/03 02:16:09;;;;;;;30.23;10.02;;;;;;;-145.01;100.00;64805.59;4970371;28;20034;-56
2022/10/03 02:18:53;;;;;;;25.23;10.45;;;;;;;-145.01;100.00;64805.59;4966306;28;20477;-56
2022/10/03 02:21:25;;;;;;;34.08;10.50;;;;;;;-145.01;100.00;64805.59;4940206;28;20038;-56
2022/10/03 02:24:16;;;;;;;33.67;11.07;;;;;;;-145.01;100.00;64805.59;4923914;28;20038;-56
2022/10/03 02:26:57;;;;;;;41.17;11.13;;;;;;;-145.01;100.00;64805.59;4970278;28;20039;-55
2022/10/03 02:29:41;;;;;;;;;;;;;;;-145.01;100.00;64805.59;4958238;28;20065;-55
2022/10/03 02:32:26;;;;;;;39.65;10.75;;;;;;;-145.01;100.00;64805.59;4960943;28;19934;-57
2022/10/03 02:35:20;;;;;;;31.90;11.05;;;;;;;-145.01;100.00;64805.59;4967936;28;20056;-57
2022/10/03 02:38:08;;;;;;;30.10;11.43;;;;;;;-145.01;100.00;64805.59;4945439;28;20130;-57
2022/10/03 02:40:55;;;;;;;29.50;11.45;;;;;;;-145.01;100.00;64805.59;4954417;28;20512;-57
2022/10/03 02:43:51;;;;;;;33.00;10.23;;;;;;;-145.01;100.00;64805.59;4975194;28;20043;-56
2022/10/03 02:46:49;;;;;;;24.10;9.82;;;;;;;-145.01;100.00;64805.59;4974683;28;20027;-55
2022/10/03 02:49:29;;;;;;;25.45;10.20;;;;;;;-145.01;100.00;64805.59;4960014;28;20062;-56
2022/10/03 02:52:50;;;;;;;45.33;10.90;;;;;;;-145.01;100.00;64805.59;4960888;28;20093;-55
2022/10/03 02:55:37;;;;;;;27.45;9.98;;;;;;;-145.01;100.00;64805.59;4940772;28;20592;-56
2022/10/03 02:58:32;;;;;;;22.45;9.00;;;;;;;-145.01;100.00;64805.59;4960946;28;20059;-56
2022/10/03 03:01:19;;;;;;;25.00;10.18;;;;;;;-145.01;100.00;64805.59;4958234;28;20122;-57
2022/10/03 03:04:20;;;;;;;32.65;10.63;;;;;;;-145.01;100.00;64805.59;4958817;28;20385;-56
2022/10/03 03:07:10;;;;;;;37.70;9.82;;;;;;;-145.01;100.00;64805.59;4941946;28;20051;-57
2022/10/03 03:09:36;;;;;;;;;;;;;;;-145.01;100.00;64805.59;4959449;28;20144;-57
2022/10/03 03:12:26;;;;;;;22.27;8.95;;;;;;;-145.01;100.00;64805.59;4964067;28;20383;-55
2022/10/03 03:15:12;;;;;;;28.70;10.63;;;;;;;-145.01;100.00;64805.59;4959980;28;20122;-56
2022/10/03 03:18:11;;;;;;;34.38;8.50;;;;;;;-145.01;100.00;64805.59;4961167;28;20122;-57
2022/10/03 03:21:03;;;;;;;31.10;10.43;;;;;;;-145.01;100.00;64805.59;4962156;28;20034;-57
2022/10/03 03:24:26;;;;;;;29.75;12.05;;;;;;;-145.01;100.00;64805.59;4957293;28;20070;-57
2022/10/03 03:27:03;;;;;;;31.10;9.52;;;;;;;-145.01;100.00;64805.59;4874830;29;20036;-56
2022/10/03 03:29:44;;;;;;;32.28;9.10;;;;;;;-145.01;100.00;64805.59;4944675;28;20122;-57
2022/10/03 03:32:23;;;;;;;33.92;7.95;;;;;;;-145.01;100.00;64805.59;4962708;28;20022;-56
2022/10/03 03:35:09;;;;;;;25.85;8.40;;;;;;;-145.01;100.00;64805.59;4959590;28;20038;-56
2022/10/03 03:38:02;;;;;;;28.92;8.25;;;;;;;-145.01;100.00;64805.59;4949308;28;20070;-56
2022/10/03 03:40:49;;;;;;;25.65;7.50;;;;;;;-145.01;100.00;64805.59;4961260;28;20055;-57
2022/10/03 03:43:18;;;;;;;37.58;8.90;;;;;;;-145.01;100.00;64805.59;4963824;28;20071;-57
2022/10/03 03:46:13;;;;;;;34.85;9.95;;;;;;;-145.01;100.00;64805.59;4962501;28;20717;-56
2022/10/03 03:49:00;;;;;;;27.05;7.53;;;;;;;-145.01;100.00;64805.59;4977741;28;20039;-56
2022/10/03 03:51:39;;;;;;;20.80;7.13;;;;;;;-145.01;100.00;64805.59;4955953;28;20478;-57
2022/10/03 03:54:07;;;;;;;28.67;7.75;;;;;;;-145.01;100.00;64805.59;4962771;28;20038;-55
2022/10/03 03:56:52;;;;;;;30.25;9.07;;;;;;;-145.01;100.00;64805.59;4961620;28;20026;-55
2022/10/03 03:59:40;;;;;;;30.13;8.43;;;;;;;-145.01;100.00;64805.59;4956765;28;20043;-55
2022/10/03 04:02:13;;;;;;;24.48;8.13;;;;;;;-145.01;100.00;64805.59;4964893;28;20035;-56
2022/10/03 04:05:03;;;;;;;27.77;8.00;;;;;;;-145.01;100.00;64805.59;4960491;28;20038;-56
2022/10/03 04:07:53;;;;;;;38.35;7.85;;;;;;;-145.01;100.00;64805.59;4972516;28;20035;-56
2022/10/03 04:10:41;;;;;;;21.33;7.53;;;;;;;-145.01;100.00;64805.59;4955935;28;20038;-57
2022/10/03 04:13:47;;;;;;;23.35;8.50;;;;;;;-145.01;100.00;64805.59;4956886;28;20097;-56
2022/10/03 04:19:47;;;;;;;28.85;7.97;;;;;;;-145.01;100.00;64805.59;4960885;28;20123;-56
2022/10/03 04:22:46;;;;;;;29.58;8.55;;;;;;;-145.01;100.00;64805.59;4962447;28;20034;-56
2022/10/03 04:25:59;;;;;;;28.58;8.13;;;;;;;-145.01;100.00;64805.59;4956717;28;20118;-56
2022/10/03 04:29:21;;;;;;;23.75;7.55;;;;;;;-145.01;100.00;64805.59;4958574;28;20061;-56
2022/10/03 04:31:57;;;;;;;24.63;7.55;;;;;;;-145.01;100.00;64805.59;4879482;29;20059;-56
2022/10/03 04:34:34;;;;;;;21.08;7.75;;;;;;;-145.01;100.00;64805.59;4958350;28;20748;-56
2022/10/03 04:37:18;;;;;;;25.65;8.13;;;;;;;-145.01;100.00;64805.59;4962993;28;20030;-55
2022/10/03 04:39:52;;;;;;;24.13;7.40;;;;;;;-145.01;100.00;64805.59;4961519;28;20482;-56
2022/10/03 04:42:39;;;;;;;19.45;8.05;;;;;;;-145.01;100.00;64805.59;4960735;28;20034;-55
2022/10/03 04:45:31;;;;;;;19.17;7.30;;;;;;;-145.01;100.00;64805.59;4961515;28;20066;-56
2022/10/03 04:48:15;;;;;;;37.15;8.70;;;;;;;-145.01;100.00;64805.59;4945344;28;20034;-57
2022/10/03 04:50:56;;;;;;;17.77;7.55;;;;;;;-145.01;100.00;64805.59;4959968;28;20066;-57
2022/10/03 04:53:40;;;;;;;37.83;7.70;;;;;;;-145.01;100.00;64805.59;4958235;28;20034;-55
2022/10/03 04:56:14;;;;;;;30.85;7.88;;;;;;;-145.01;100.00;64805.59;4958592;28;20038;-57
2022/10/03 04:58:46;;;;;;;24.00;8.68;;;;;;;-145.01;100.00;64805.59;4960298;28;20693;-56
2022/10/03 05:01:19;;;;;;;27.90;9.48;;;;;;;-145.01;100.00;64805.59;4956372;28;20515;-56
2022/10/03 05:04:16;;;;;;;22.77;8.45;;;;;;;-145.01;100.00;64805.59;4944377;28;20460;-56
2022/10/03 05:06:52;;;;;;;22.98;9.15;;;;;;;-145.01;100.00;64805.59;4956781;28;20122;-56
2022/10/03 05:09:26;;;;;;;25.77;8.85;;;;;;;-145.01;100.00;64805.59;4962023;28;20031;-55
2022/10/03 05:12:38;;;;;;;27.48;9.02;;;;;;;-145.01;100.00;64805.59;4964681;28;20465;-56
2022/10/03 05:15:10;;;;;;;24.35;10.25;;;;;;;-145.01;100.00;64805.59;4924964;29;20075;-56
2022/10/03 05:17:58;;;;;;;29.20;8.75;;;;;;;-145.01;100.00;64805.59;4922853;29;20114;-56
2022/10/03 05:20:48;;;;;;;29.67;7.53;;;;;;;-145.01;100.00;64805.59;4948392;28;20065;-56
2022/10/03 05:23:30;;;;;;;18.52;5.97;;;;;;;-145.01;100.00;64805.59;4957905;28;20273;-56
2022/10/03 05:26:14;;;;;;;32.55;7.78;;;;;;;-145.01;100.00;64805.59;4960624;28;20035;-56
2022/10/03 05:29:04;;;;;;;21.40;7.03;;;;;;;-145.01;100.00;64805.59;4953851;28;20067;-56
2022/10/03 05:31:44;;;;;;;24.27;7.72;;;;;;;-145.01;100.00;64805.59;4954492;28;20133;-56
2022/10/03 05:34:28;;;;;;;;;;;;;;;-145.01;100.00;64805.59;4957363;28;20125;-56
2022/10/03 05:37:24;;;;;;;25.92;8.27;;;;;;;-145.01;100.00;64805.59;4960375;28;19941;-56
2022/10/03 05:39:59;;;;;;;19.60;7.57;;;;;;;-145.01;100.00;64805.59;4963650;28;20051;-55
2022/10/03 05:42:30;;;;;;;19.70;6.80;;;;;;;-145.01;100.00;64805.59;4965613;28;20026;-55
2022/10/03 05:44:59;;;;;;;30.83;7.78;;;;;;;-145.01;100.00;64805.59;4960786;28;20352;-55
2022/10/03 05:47:45;;;;;;;23.63;7.35;;;;;;;-145.01;100.00;64805.59;4965246;28;20043;-55
2022/10/03 05:50:32;;;;;;;27.25;8.20;;;;;;;-145.01;100.00;64805.59;4956473;28;20035;-55
2022/10/03 05:53:01;;;;;;;20.60;7.70;;;;;;;-145.01;100.00;64805.59;4954736;28;20031;-56
2022/10/03 05:55:39;;;;;;;17.40;6.53;;;;;;;-145.01;100.00;64805.59;4961351;28;20521;-54
2022/10/03 05:58:13;;;;;;;20.27;7.15;;;;;;;-145.01;100.00;64805.59;4954185;28;20145;-54
2022/10/03 06:00:50;;;;;;;22.88;7.00;;;;;;;-145.01;100.00;64805.59;4973144;28;20027;-55
2022/10/03 06:03:53;;;;;;;21.38;6.50;;;;;;;-145.01;100.00;64805.59;4967587;28;20129;-56
2022/10/03 06:06:44;;;;;;;23.23;6.85;;;;;;;-145.01;100.00;64805.59;4960515;28;21526;-55
2022/10/03 06:09:35;;;;;;;23.70;7.68;;;;;;;-145.01;100.00;64805.59;4966589;28;20027;-56
2022/10/03 06:12:15;;;;;;;16.55;7.38;;;;;;;-145.01;100.00;64805.59;4949006;28;20058;-56
2022/10/03 06:14:56;;;;;;;25.55;8.02;;;;;;;-145.01;100.00;64805.59;4960302;28;20039;-56
2022/10/03 06:17:48;;;;;;;22.48;7.97;;;;;;;-145.01;100.00;64805.59;4966444;28;20035;-55
2022/10/03 06:20:47;;;;;;;24.02;7.38;;;;;;;-145.01;100.00;64805.59;4968121;28;20030;-56
2022/10/03 06:23:40;;;;;;;21.33;7.40;;;;;;;-145.01;100.00;64805.59;4963845;28;20044;-55
2022/10/03 06:26:31;;;;;;;16.52;6.32;;;;;;;-145.01;100.00;64805.59;4959181;28;20461;-56
2022/10/03 06:29:15;;;;;;;12.23;6.15;;;;;;;-145.01;100.00;64805.59;4967017;28;20097;-56
2022/10/03 06:32:05;;;;;;;18.52;6.88;;;;;;;-145.01;100.00;64805.59;4955081;28;20037;-56
2022/10/03 06:35:03;;;;;;;12.50;5.25;;;;;;;-145.01;100.00;64805.59;4968824;28;20026;-56
2022/10/03 06:37:47;;;;;;;15.80;5.15;;;;;;;-145.01;100.00;64805.59;4960432;28;20039;-56
2022/10/03 06:40:40;;;;;;;9.95;5.22;;;;;;;-145.01;100.00;64805.59;4967889;28;20378;-56
2022/10/03 06:43:24;;;;;;;13.25;5.45;;;;;;;-145.01;100.00;64805.59;4963166;28;20042;-56
2022/10/03 06:45:55;;;;;;;17.88;5.60;;;;;;;-145.01;100.00;64805.59;4954922;28;20113;-56
2022/10/03 06:48:53;;;;;;;17.70;5.90;;;;;;;-145.01;100.00;64805.59;4956782;28;20085;-56
2022/10/03 06:51:55;;;;;;;11.70;4.97;;;;;;;-145.01;100.00;64805.59;4969601;28;20085;-55
2022/10/03 06:54:30;;;;;;;17.75;6.22;;;;;;;-145.01;100.00;64805.59;4961203;28;20480;-56
2022/10/03 06:57:16;;;;;;;14.00;4.88;;;;;;;-145.01;100.00;64805.59;4956306;28;20027;-56
2022/10/03 06:59:45;;;;;;;7.85;4.18;;;;;;;-145.01;100.00;64805.59;4976149;28;20030;-55
2022/10/03 07:02:47;;;;;;;20.30;6.40;;;;;;;-145.01;100.00;64805.59;4963029;28;20042;-56
2022/10/03 07:05:46;;;;;;;10.07;4.72;;;;;;;-145.01;100.00;64805.59;4957325;28;20057;-56
2022/10/03 07:08:17;;;;;;;14.52;5.93;;;;;;;-145.01;100.00;64805.59;4956205;28;20065;-56
2022/10/03 07:10:49;;;;;;;11.65;5.72;;;;;;;-145.01;100.00;64805.59;4958213;28;20042;-57
2022/10/03 07:13:17;;;;;;;21.70;6.43;;;;;;;-145.01;100.00;64805.59;4964374;28;20078;-56
2022/10/03 07:16:01;;;;;;;11.77;5.57;;;;;;;-145.01;100.00;64805.59;4964424;28;20027;-56
2022/10/03 07:18:29;;;;;;;10.52;5.88;;;;;;;-145.01;100.00;64805.59;4962155;28;20042;-57
2022/10/03 07:21:30;;;;;;;14.57;5.88;;;;;;;-145.01;100.00;64805.59;4958834;28;20086;-56
2022/10/03 07:23:55;;;;;;;21.80;5.90;;;;;;;-145.01;100.00;64805.59;4968940;28;20065;-56
2022/10/03 07:26:26;;;;;;;18.05;5.40;;;;;;;-145.01;100.00;64805.59;4960616;28;20425;-56
2022/10/03 07:29:13;;;;;;;12.23;5.40;;;;;;;-145.01;100.00;64805.59;4966215;28;20027;-56
2022/10/03 07:32:00;;;;;;;13.13;5.28;;;;;;;-145.01;100.00;64805.59;4961471;28;20022;-56
2022/10/03 07:35:00;;;;;;;16.52;5.82;;;;;;;-145.01;100.00;64805.59;4962266;28;20034;-56
2022/10/03 07:41:12;;;;;;;15.27;5.25;;;;;;;-145.01;100.00;64805.59;4962758;28;20520;-56
2022/10/03 07:43:49;;;;;;;18.00;5.65;;;;;;;-145.01;100.00;64805.59;4961897;28;20041;-56
2022/10/03 07:46:41;;;;;;;13.77;6.15;;;;;;;-145.01;100.00;64805.59;4965696;28;20035;-57
2022/10/03 07:49:40;;;;;;;21.25;6.47;;;;;;;-145.01;100.00;64805.59;4964961;28;20031;-56
2022/10/03 07:52:23;;;;;;;10.18;5.28;;;;;;;-145.01;100.00;64805.59;4946904;28;20382;-56
2022/10/03 07:55:07;;;;;;;15.48;5.22;;;;;;;-145.01;100.00;64805.59;4958707;28;20038;-56
2022/10/03 07:57:39;;;;;;;11.82;5.03;;;;;;;-145.01;100.00;64805.59;4953093;28;20559;-57
2022/10/03 08:00:38;;;;;;;11.63;4.90;;;;;;;-145.01;100.00;64805.59;4952816;28;20132;-56
2022/10/03 08:03:40;;;;;;;11.50;4.40;;;;;;;-145.01;100.00;64805.59;4953432;28;20094;-56
2022/10/03 08:06:17;;;;;;;14.70;4.65;;;;;;;-145.01;100.00;64805.59;4956038;28;20089;-57
2022/10/03 08:08:51;;;;;;;11.50;5.00;;;;;;;-145.01;100.00;64805.59;4961438;28;20057;-56
2022/10/03 08:11:26;;;;;;;9.93;4.90;;;;;;;-145.01;100.00;64805.59;4959969;28;20039;-56
2022/10/03 08:14:20;;;;;;;17.73;5.68;;;;;;;-145.01;100.00;64805.59;4963201;28;20794;-56
2022/10/03 08:17:26;;;;;;;17.63;5.95;;;;;;;-145.01;100.00;64805.59;4960127;28;20034;-57
2022/10/03 08:19:57;;;;;;;13.57;5.70;;;;;;;-145.01;100.00;64805.59;4921050;29;20027;-57
2022/10/03 08:22:41;;;;;;;11.25;5.10;;;;;;;-145.01;100.00;64805.59;4953709;28;20050;-56
2022/10/03 08:25:45;;;;;;;15.25;6.50;;;;;;;-145.01;100.00;64805.59;4963748;28;20027;-57
2022/10/03 08:28:41;;;;;;;13.07;5.13;;;;;;;-145.01;100.00;64805.59;4963307;28;20042;-56
2022/10/03 08:31:15;;;;;;;17.00;5.40;;;;;;;-145.01;100.00;64805.59;4961845;28;20084;-56
2022/10/03 08:33:47;;;;;;;13.88;5.22;;;;;;;-145.01;100.00;64805.59;4968114;28;20045;-58
2022/10/03 08:36:28;;;;;;;13.20;5.90;;;;;;;-145.01;100.00;64805.59;4954228;28;20061;-55
2022/10/03 08:39:04;;;;;;;13.98;5.35;;;;;;;-145.01;100.00;64805.59;4955424;28;20051;-56
2022/10/03 08:41:59;;;;;;;12.85;4.85;;;;;;;-145.01;100.00;64805.59;4962269;28;20141;-56
2022/10/03 08:44:43;;;;;;;15.23;5.00;;;;;;;-145.01;100.00;64805.59;4945629;28;20066;-56
2022/10/03 08:47:12;;;;;;;21.58;5.03;;;;;;;-145.01;100.00;64805.59;4966206;28;20396;-57
2022/10/03 08:50:15;;;;;;;16.70;5.65;;;;;;;-145.01;100.00;64805.59;4960189;28;20149;-56
2022/10/03 08:53:12;;;;;;;20.10;5.45;;;;;;;-145.01;100.00;64805.59;4958191;28;20051;-56
2022/10/03 08:55:58;;;;;;;17.38;5.60;;;;;;;-145.01;100.00;64805.59;4956010;28;20030;-58
2022/10/03 08:59:03;;;;;;;16.00;5.28;;;;;;;-145.01;100.00;64805.59;4954646;28;20031;-58
2022/10/03 09:01:42;;;;;;;11.50;5.55;;;;;;;-145.01;100.00;64805.59;4961648;28;20027;-57
2022/10/03 09:04:20;;;;;;;12.10;5.90;;;;;;;-145.01;100.00;64805.59;4959973;28;20027;-57
2022/10/03 09:06:48;;;;;;;11.85;5.30;;;;;;;-145.01;100.00;64805.59;4952456;28;20035;-57
2022/10/03 09:09:46;;;;;;;16.00;5.28;;;;;;;-145.01;100.00;64805.59;4968539;28;20034;-57
2022/10/03 09:12:21;;;;;;;19.35;6.22;;;;;;;-145.01;100.00;64805.59;4958638;28;20039;-57
2022/10/03 09:15:02;;;;;;;15.18;5.13;;;;;;;-145.01;100.00;64805.59;4964181;28;20031;-56
2022/10/03 09:17:30;;;;;;;15.10;5.00;;;;;;;-145.01;100.00;64805.59;4965113;28;20249;-56
2022/10/03 09:20:20;;;;;;;19.80;4.80;;;;;;;-145.01;100.00;64805.59;4962704;28;20450;-57
2022/10/03 09:22:51;;;;;;;11.63;5.55;;;;;;;-145.01;100.00;64805.59;4958035;28;20023;-56
2022/10/03 09:25:19;;;;;;;15.32;5.00;;;;;;;-145.01;100.00;64805.59;4960067;28;20397;-58
2022/10/03 09:28:01;;;;;;;13.07;4.50;;;;;;;-145.01;100.00;64805.59;4954307;28;20030;-57
2022/10/03 09:30:34;;;;;;;14.77;4.40;;;;;;;-145.01;100.00;64805.59;4955535;28;20038;-58
2022/10/03 09:33:31;;;;;;;12.13;4.65;;;;;;;-145.01;100.00;64805.59;4940634;28;20043;-57
2022/10/03 09:36:11;;;;;;;14.32;4.28;;;;;;;-145.01;100.00;64805.59;4963330;28;20086;-58
2022/10/03 09:39:01;;;;;;;13.88;4.60;;;;;;;-145.01;100.00;64805.59;4961559;28;20035;-57
2022/10/03 09:42:03;;;;;;;12.90;4.35;;;;;;;-145.01;100.00;64805.59;4959894;28;20485;-57
2022/10/03 09:44:50;;;;;;;16.67;5.05;;;;;;;-145.01;100.00;64805.59;4957139;28;20042;-58
2022/10/03 09:47:27;;;;;;;21.40;4.80;;;;;;;-145.01;100.00;64805.59;4957767;28;20035;-58
2022/10/03 09:50:30;;;;;;;19.38;5.10;;;;;;;-145.01;100.00;64805.59;4959433;28;20027;-57
2022/10/03 09:53:07;;;;;;;13.20;4.05;;;;;;;-145.01;100.00;64805.59;4956400;28;20058;-57
2022/10/03 09:55:36;;;;;;;15.30;4.78;;;;;;;-145.01;100.00;64805.59;4960311;28;20031;-56
2022/10/03 09:58:14;;;;;;;14.25;4.18;;;;;;;-145.01;100.00;64805.59;4954876;28;20035;-57
2022/10/03 10:00:52;;;;;;;15.18;4.63;;;;;;;-145.01;100.00;64805.59;4949514;28;20042;-57
2022/10/03 10:03:49;;;;;;;18.40;5.65;;;;;;;-145.01;100.00;64805.59;4953063;28;20175;-57
2022/10/03 10:06:41;;;;;;;17.10;5.22;;;;;;;-145.01;100.00;64805.59;4967909;28;20569;-57
2022/10/03 10:09:43;;;;;;;15.18;4.40;;;;;;;-145.01;100.00;64805.59;4955185;28;20119;-58
2022/10/03 10:12:30;;;;;;;19.90;5.03;;;;;;;-145.01;100.00;64805.59;4961115;28;20108;-58
2022/10/03 10:15:17;;;;;;;15.07;4.38;;;;;;;-145.01;100.00;64805.59;4963383;28;20045;-58
2022/10/03 10:17:45;;;;;;;17.98;4.32;;;;;;;-145.01;100.00;64805.59;4957173;28;20019;-56
2022/10/03 10:20:29;;;;;;;11.82;4.07;;;;;;;-145.01;100.00;64805.59;4955931;28;20035;-55
2022/10/03 10:23:06;;;;;;;13.65;4.97;;;;;;;-145.01;100.00;64805.59;4963268;28;20057;-58
2022/10/03 10:25:44;;;;;;;16.95;4.53;;;;;;;-145.01;100.00;64805.59;4960373;28;20034;-56
2022/10/03 10:28:42;;;;;;;17.25;3.90;;;;;;;-145.01;100.00;64805.59;4961205;28;20550;-57
2022/10/03 10:31:26;;;;;;;16.92;4.22;;;;;;;-145.01;100.00;64805.59;4950071;28;20031;-57
2022/10/03 10:34:39;;;;;;;12.73;4.20;;;;;;;-145.01;100.00;64805.59;4957245;28;20275;-57
2022/10/03 10:37:18;;;;;;;18.10;4.30;;;;;;;-145.01;100.00;64805.59;4954749;28;20501;-57
2022/10/03 10:39:58;;;;;;;20.00;4.32;;;;;;;-145.01;100.00;64805.59;4966752;28;20055;-58
2022/10/03 10:42:45;;;;;;;18.90;3.97;;;;;;;-145.01;100.00;64805.59;4968334;28;20172;-57
2022/10/03 10:45:48;;;;;;;19.13;4.63;;;;;;;-145.01;100.00;64805.59;4959224;28;20787;-56
2022/10/03 10:48:35;;;;;;;16.33;3.90;;;;;;;-145.01;100.00;64805.59;4954568;28;20722;-55
2022/10/03 10:51:38;;;;;;;17.58;4.55;;;;;;;-145.01;100.00;64805.59;4964926;28;20121;-57
2022/10/03 10:54:22;;;;;;;18.77;3.83;;;;;;;-145.01;100.00;64805.59;4955561;28;20833;-57
2022/10/03 10:57:08;;;;;;;12.85;3.22;;;;;;;-145.01;100.00;64805.59;4963227;28;20483;-57
2022/10/03 10:59:55;;;;;;;19.65;4.07;;;;;;;-145.01;100.00;64805.59;4963721;28;20027;-57
2022/10/03 11:02:45;;;;;;;13.43;3.97;;;;;;;-145.01;100.00;64805.59;4959800;28;20043;-57
2022/10/03 11:05:28;;;;;;;13.18;3.17;;;;;;;-145.01;100.00;64805.59;4955235;28;20038;-57
2022/10/03 11:08:31;;;;;;;14.23;3.28;;;;;;;-145.01;100.00;64805.59;4960197;28;20035;-56
2022/10/03 11:11:17;;;;;;;11.65;3.25;;;;;;;-145.01;100.00;64805.59;4964913;28;20038;-56
2022/10/03 11:14:07;;;;;;;10.43;3.47;;;;;;;-145.01;100.00;64805.59;4965133;28;20367;-56
2022/10/03 11:16:54;;;;;;;16.30;3.78;;;;;;;-145.01;100.00;64805.59;4956814;28;20035;-56
2022/10/03 11:19:41;;;;;;;12.93;3.30;;;;;;;-145.01;100.00;64805.59;4962057;28;20401;-56
2022/10/03 11:22:57;;;;;;;14.07;4.28;;;;;;;-145.01;100.00;64805.59;4966458;28;20038;-56
2022/10/03 11:25:53;;;;;;;14.20;3.63;;;;;;;-145.01;100.00;64805.59;4927362;28;20101;-57
2022/10/03 11:28:19;;;;;;;11.38;3.28;;;;;;;-145.01;100.00;64805.59;4962606;28;20031;-57
2022/10/03 11:30:59;;;;;;;18.60;3.78;;;;;;;-145.01;100.00;64805.59;4960020;28;20676;-58
2022/10/03 11:33:57;;;;;;;16.50;4.63;;;;;;;-145.01;100.00;64805.59;4959880;28;20038;-58
2022/10/03 11:36:35;;;;;;;15.82;3.83;;;;;;;-145.01;100.00;64805.59;4937170;28;20054;-58
2022/10/03 11:39:10;;;;;;;19.45;3.97;;;;;;;-145.01;100.00;64805.59;4959326;28;20534;-57
2022/10/03 11:41:45;;;;;;;12.90;3.50;;;;;;;-145.01;100.00;64805.59;4961910;28;20042;-58
2022/10/03 11:44:19;;;;;;;17.25;3.90;;;;;;;-145.01;100.00;64805.59;4968186;28;20109;-58
2022/10/03 11:46:53;;;;;;;13.02;3.80;;;;;;;-145.01;100.00;64805.59;4958603;28;20484;-56
2022/10/03 11:49:37;;;;;;;13.90;3.55;;;;;;;-145.01;100.00;64805.59;4977239;28;20136;-55
2022/10/03 11:52:05;;;;;;;13.80;3.45;;;;;;;-145.01;100.00;64805.59;4962962;28;20477;-54
2022/10/03 11:54:36;;;;;;;13.55;4.07;;;;;;;-145.01;100.00;64805.59;4958901;28;20677;-56
2022/10/03 11:57:30;;;;;;;17.20;3.92;;;;;;;-145.01;100.00;64805.59;4967626;28;20050;-57
2022/10/03 11:59:56;;;;;;;13.45;3.88;;;;;;;-145.01;100.00;64805.59;4957244;28;20139;-56
2022/10/03 12:02:40;;;;;;;22.55;4.72;;;;;;;-145.01;100.00;64805.59;4959568;28;20270;-56
2022/10/03 12:05:11;;;;;;;16.02;4.10;;;;;;;-145.01;100.00;64805.59;4957600;28;20102;-57
2022/10/03 12:10:51;;;;;;;13.73;4.00;;;;;;;-145.01;100.00;64805.59;4958805;28;20156;-57
2022/10/03 12:13:20;;;;;;;19.33;3.75;;;;;;;-145.01;100.00;64805.59;4960410;28;20089;-57
2022/10/03 12:15:53;;;;;;;13.52;3.50;;;;;;;-145.01;100.00;64805.59;4958053;28;20027;-57
2022/10/03 12:18:41;;;;;;;15.98;3.83;;;;;;;-145.01;100.00;64805.59;4956322;28;20039;-57
2022/10/03 12:21:10;;;;;;;11.45;3.70;;;;;;;-145.01;100.00;64805.59;4953856;28;20488;-58
2022/10/03 12:24:00;;;;;;;15.05;4.05;;;;;;;-145.01;100.00;64805.59;4958666;28;20039;-58
2022/10/03 12:26:41;;;;;;;;;;;;;;;-145.01;100.00;64805.59;4969968;28;20042;-54
2022/10/03 12:29:07;;;;;;;14.30;3.90;;;;;;;-145.01;100.00;64805.59;4967671;28;19918;-58
2022/10/03 12:31:40;;;;;;;16.02;4.07;;;;;;;-145.01;100.00;64805.59;4946856;28;20032;-57